sensor_id;sensor_type;location;lat;lon;timestamp;P1;durP1;ratioP1;P2;durP2;ratioP2
49340;SDS011;35209;51.050;13.678;2022-08-16T00:02:32;11.23;;;10.52;;
49340;SDS011;35209;51.050;13.678;2022-08-16T00:07:34;13.63;;;12.80;;
49340;SDS011;35209;51.050;13.678;2022-08-16T00:12:36;11.65;;;10.95;;
49340;SDS011;35209;51.050;13.678;2022-08-16T00:17:38;10.77;;;10.10;;
49340;SDS011;35209;51.050;13.678;2022-08-16T00:22:57;10.80;;;10.07;;
49340;SDS011;35209;51.050;13.678;2022-08-16T00:28:00;10.63;;;9.73;;
49340;SDS011;35209;51.050;13.678;2022-08-16T00:33:02;10.35;;;9.75;;
49340;SDS011;35209;51.050;13.678;2022-08-16T00:38:05;10.00;;;9.50;;
49340;SDS011;35209;51.050;13.678;2022-08-16T00:43:32;11.27;;;10.48;;
49340;SDS011;35209;51.050;13.678;2022-08-16T00:48:44;10.60;;;9.95;;
49340;SDS011;35209;51.050;13.678;2022-08-16T00:53:47;9.75;;;9.15;;
49340;SDS011;35209;51.050;13.678;2022-08-16T00:58:51;10.32;;;9.55;;
49340;SDS011;35209;51.050;13.678;2022-08-16T01:03:54;9.70;;;9.00;;
49340;SDS011;35209;51.050;13.678;2022-08-16T01:08:56;10.15;;;9.55;;
49340;SDS011;35209;51.050;13.678;2022-08-16T01:14:12;10.55;;;9.85;;
49340;SDS011;35209;51.050;13.678;2022-08-16T01:19:22;10.43;;;9.70;;
49340;SDS011;35209;51.050;13.678;2022-08-16T01:24:34;11.82;;;10.80;;
49340;SDS011;35209;51.050;13.678;2022-08-16T01:35:38;10.23;;;9.52;;
49340;SDS011;35209;51.050;13.678;2022-08-16T01:40:55;11.27;;;10.63;;
49340;SDS011;35209;51.050;13.678;2022-08-16T01:46:04;11.18;;;10.55;;
49340;SDS011;35209;51.050;13.678;2022-08-16T01:51:31;10.38;;;9.77;;
49340;SDS011;35209;51.050;13.678;2022-08-16T01:56:40;12.77;;;11.98;;
49340;SDS011;35209;51.050;13.678;2022-08-16T02:01:44;11.32;;;10.63;;
49340;SDS011;35209;51.050;13.678;2022-08-16T02:06:50;11.43;;;10.73;;
49340;SDS011;35209;51.050;13.678;2022-08-16T02:11:54;12.40;;;11.75;;
49340;SDS011;35209;51.050;13.678;2022-08-16T02:16:59;12.02;;;10.93;;
49340;SDS011;35209;51.050;13.678;2022-08-16T02:22:05;10.73;;;9.98;;
49340;SDS011;35209;51.050;13.678;2022-08-16T02:27:31;11.38;;;10.57;;
49340;SDS011;35209;51.050;13.678;2022-08-16T02:32:33;11.98;;;11.18;;
49340;SDS011;35209;51.050;13.678;2022-08-16T02:37:56;11.15;;;10.25;;
49340;SDS011;35209;51.050;13.678;2022-08-16T02:43:09;10.90;;;10.30;;
49340;SDS011;35209;51.050;13.678;2022-08-16T02:48:12;11.57;;;10.88;;
49340;SDS011;35209;51.050;13.678;2022-08-16T02:53:33;10.35;;;9.75;;
49340;SDS011;35209;51.050;13.678;2022-08-16T02:58:36;10.40;;;9.80;;
49340;SDS011;35209;51.050;13.678;2022-08-16T03:03:40;12.00;;;11.30;;
49340;SDS011;35209;51.050;13.678;2022-08-16T03:09:02;11.00;;;10.30;;
49340;SDS011;35209;51.050;13.678;2022-08-16T03:14:07;10.77;;;10.17;;
49340;SDS011;35209;51.050;13.678;2022-08-16T03:19:12;11.25;;;10.60;;
49340;SDS011;35209;51.050;13.678;2022-08-16T03:24:16;11.07;;;10.38;;
49340;SDS011;35209;51.050;13.678;2022-08-16T03:29:31;12.20;;;11.50;;
49340;SDS011;35209;51.050;13.678;2022-08-16T03:34:36;10.63;;;9.82;;
49340;SDS011;35209;51.050;13.678;2022-08-16T03:39:38;11.13;;;10.25;;
49340;SDS011;35209;51.050;13.678;2022-08-16T03:44:44;11.00;;;10.20;;
49340;SDS011;35209;51.050;13.678;2022-08-16T03:49:53;11.02;;;10.32;;
49340;SDS011;35209;51.050;13.678;2022-08-16T03:54:55;11.88;;;11.07;;
49340;SDS011;35209;51.050;13.678;2022-08-16T04:00:00;14.05;;;12.95;;
49340;SDS011;35209;51.050;13.678;2022-08-16T04:05:15;12.10;;;11.20;;
49340;SDS011;35209;51.050;13.678;2022-08-16T04:10:19;11.85;;;11.10;;
49340;SDS011;35209;51.050;13.678;2022-08-16T04:15:38;13.23;;;12.02;;
49340;SDS011;35209;51.050;13.678;2022-08-16T04:20:51;13.05;;;12.25;;
49340;SDS011;35209;51.050;13.678;2022-08-16T04:25:59;13.23;;;12.27;;
49340;SDS011;35209;51.050;13.678;2022-08-16T04:31:05;13.63;;;12.83;;
49340;SDS011;35209;51.050;13.678;2022-08-16T04:36:14;13.00;;;12.05;;
49340;SDS011;35209;51.050;13.678;2022-08-16T04:41:21;12.48;;;11.48;;
49340;SDS011;35209;51.050;13.678;2022-08-16T04:46:40;15.13;;;13.93;;
49340;SDS011;35209;51.050;13.678;2022-08-16T04:52:02;14.52;;;13.63;;
49340;SDS011;35209;51.050;13.678;2022-08-16T04:57:24;13.32;;;12.60;;
49340;SDS011;35209;51.050;13.678;2022-08-16T05:02:30;13.68;;;12.65;;
49340;SDS011;35209;51.050;13.678;2022-08-16T05:07:44;13.20;;;12.32;;
49340;SDS011;35209;51.050;13.678;2022-08-16T05:13:03;12.00;;;11.23;;
49340;SDS011;35209;51.050;13.678;2022-08-16T05:18:07;13.13;;;12.20;;
49340;SDS011;35209;51.050;13.678;2022-08-16T05:23:25;14.18;;;13.18;;
49340;SDS011;35209;51.050;13.678;2022-08-16T05:28:34;14.40;;;13.23;;
49340;SDS011;35209;51.050;13.678;2022-08-16T05:33:42;11.27;;;10.55;;
49340;SDS011;35209;51.050;13.678;2022-08-16T05:38:54;10.80;;;9.82;;
49340;SDS011;35209;51.050;13.678;2022-08-16T05:44:00;11.00;;;10.23;;
49340;SDS011;35209;51.050;13.678;2022-08-16T05:49:23;11.18;;;10.35;;
49340;SDS011;35209;51.050;13.678;2022-08-16T05:54:43;8.95;;;8.25;;
49340;SDS011;35209;51.050;13.678;2022-08-16T05:59:51;8.18;;;7.65;;
49340;SDS011;35209;51.050;13.678;2022-08-16T06:05:12;9.25;;;8.50;;
49340;SDS011;35209;51.050;13.678;2022-08-16T06:10:17;8.40;;;7.65;;
49340;SDS011;35209;51.050;13.678;2022-08-16T06:15:35;6.82;;;6.13;;
49340;SDS011;35209;51.050;13.678;2022-08-16T06:20:41;8.07;;;6.75;;
49340;SDS011;35209;51.050;13.678;2022-08-16T06:25:56;7.13;;;6.53;;
49340;SDS011;35209;51.050;13.678;2022-08-16T06:36:06;6.10;;;5.57;;
49340;SDS011;35209;51.050;13.678;2022-08-16T06:41:12;5.73;;;5.20;;
49340;SDS011;35209;51.050;13.678;2022-08-16T06:51:36;4.40;;;4.03;;
49340;SDS011;35209;51.050;13.678;2022-08-16T06:56:53;6.75;;;4.15;;
49340;SDS011;35209;51.050;13.678;2022-08-16T07:01:56;3.83;;;3.28;;
49340;SDS011;35209;51.050;13.678;2022-08-16T07:07:02;4.15;;;2.00;;
49340;SDS011;35209;51.050;13.678;2022-08-16T07:12:10;2.47;;;1.92;;
49340;SDS011;35209;51.050;13.678;2022-08-16T07:17:18;2.38;;;1.70;;
49340;SDS011;35209;51.050;13.678;2022-08-16T07:22:25;4.60;;;3.33;;
49340;SDS011;35209;51.050;13.678;2022-08-16T07:27:46;5.32;;;2.03;;
49340;SDS011;35209;51.050;13.678;2022-08-16T07:32:51;7.00;;;6.22;;
49340;SDS011;35209;51.050;13.678;2022-08-16T07:37:54;2.25;;;1.70;;
49340;SDS011;35209;51.050;13.678;2022-08-16T07:43:14;4.40;;;3.05;;
49340;SDS011;35209;51.050;13.678;2022-08-16T07:48:16;3.55;;;2.38;;
49340;SDS011;35209;51.050;13.678;2022-08-16T07:53:25;5.60;;;5.18;;
49340;SDS011;35209;51.050;13.678;2022-08-16T07:58:31;13.10;;;2.47;;
49340;SDS011;35209;51.050;13.678;2022-08-16T08:03:42;2.22;;;1.50;;
49340;SDS011;35209;51.050;13.678;2022-08-16T08:08:54;1.58;;;1.48;;
49340;SDS011;35209;51.050;13.678;2022-08-16T08:19:07;2.40;;;1.63;;
49340;SDS011;35209;51.050;13.678;2022-08-16T08:24:15;2.50;;;1.65;;
49340;SDS011;35209;51.050;13.678;2022-08-16T08:29:17;4.38;;;2.40;;
49340;SDS011;35209;51.050;13.678;2022-08-16T08:34:38;1.35;;;1.25;;
49340;SDS011;35209;51.050;13.678;2022-08-16T08:39:40;1.75;;;1.45;;
49340;SDS011;35209;51.050;13.678;2022-08-16T08:49:58;2.42;;;1.40;;
49340;SDS011;35209;51.050;13.678;2022-08-16T08:55:05;2.75;;;1.55;;
49340;SDS011;35209;51.050;13.678;2022-08-16T09:00:14;3.22;;;1.80;;
49340;SDS011;35209;51.050;13.678;2022-08-16T09:05:23;4.28;;;1.60;;
49340;SDS011;35209;51.050;13.678;2022-08-16T09:10:40;3.78;;;1.70;;
49340;SDS011;35209;51.050;13.678;2022-08-16T09:15:42;5.13;;;2.25;;
49340;SDS011;35209;51.050;13.678;2022-08-16T09:20:45;1.70;;;1.60;;
49340;SDS011;35209;51.050;13.678;2022-08-16T09:26:01;4.38;;;1.65;;
49340;SDS011;35209;51.050;13.678;2022-08-16T09:31:23;2.92;;;1.30;;
49340;SDS011;35209;51.050;13.678;2022-08-16T09:36:24;2.22;;;1.40;;
49340;SDS011;35209;51.050;13.678;2022-08-16T09:41:33;1.92;;;1.30;;
49340;SDS011;35209;51.050;13.678;2022-08-16T09:46:34;5.22;;;1.55;;
49340;SDS011;35209;51.050;13.678;2022-08-16T09:51:50;3.38;;;1.48;;
49340;SDS011;35209;51.050;13.678;2022-08-16T09:56:53;1.58;;;1.33;;
49340;SDS011;35209;51.050;13.678;2022-08-16T10:01:56;2.53;;;1.20;;
49340;SDS011;35209;51.050;13.678;2022-08-16T10:06:59;2.05;;;1.50;;
49340;SDS011;35209;51.050;13.678;2022-08-16T10:12:05;3.15;;;1.60;;
49340;SDS011;35209;51.050;13.678;2022-08-16T10:17:28;1.95;;;1.30;;
49340;SDS011;35209;51.050;13.678;2022-08-16T10:22:30;3.38;;;1.58;;
49340;SDS011;35209;51.050;13.678;2022-08-16T10:27:33;2.47;;;1.38;;
49340;SDS011;35209;51.050;13.678;2022-08-16T10:32:58;4.50;;;1.75;;
49340;SDS011;35209;51.050;13.678;2022-08-16T10:37:59;2.70;;;1.48;;
49340;SDS011;35209;51.050;13.678;2022-08-16T10:43:01;2.58;;;1.33;;
49340;SDS011;35209;51.050;13.678;2022-08-16T10:48:08;1.42;;;1.33;;
49340;SDS011;35209;51.050;13.678;2022-08-16T10:53:29;2.78;;;1.42;;
49340;SDS011;35209;51.050;13.678;2022-08-16T10:58:34;2.92;;;1.30;;
49340;SDS011;35209;51.050;13.678;2022-08-16T11:03:36;1.63;;;1.15;;
49340;SDS011;35209;51.050;13.678;2022-08-16T11:08:44;2.17;;;1.33;;
49340;SDS011;35209;51.050;13.678;2022-08-16T11:13:47;4.53;;;1.40;;
49340;SDS011;35209;51.050;13.678;2022-08-16T11:18:59;2.45;;;1.38;;
49340;SDS011;35209;51.050;13.678;2022-08-16T11:24:12;1.85;;;1.35;;
49340;SDS011;35209;51.050;13.678;2022-08-16T11:29:34;1.48;;;1.08;;
49340;SDS011;35209;51.050;13.678;2022-08-16T11:34:37;7.93;;;1.50;;
49340;SDS011;35209;51.050;13.678;2022-08-16T11:39:59;2.47;;;1.70;;
49340;SDS011;35209;51.050;13.678;2022-08-16T11:45:02;3.00;;;1.40;;
49340;SDS011;35209;51.050;13.678;2022-08-16T11:50:05;2.13;;;1.92;;
49340;SDS011;35209;51.050;13.678;2022-08-16T11:55:10;3.97;;;1.33;;
49340;SDS011;35209;51.050;13.678;2022-08-16T12:00:13;2.80;;;1.20;;
49340;SDS011;35209;51.050;13.678;2022-08-16T12:05:36;4.03;;;1.45;;
49340;SDS011;35209;51.050;13.678;2022-08-16T12:10:40;1.83;;;1.67;;
49340;SDS011;35209;51.050;13.678;2022-08-16T12:15:43;1.88;;;1.30;;
49340;SDS011;35209;51.050;13.678;2022-08-16T12:20:47;1.40;;;1.30;;
49340;SDS011;35209;51.050;13.678;2022-08-16T12:25:49;3.80;;;1.63;;
49340;SDS011;35209;51.050;13.678;2022-08-16T12:30:52;2.45;;;1.45;;
49340;SDS011;35209;51.050;13.678;2022-08-16T12:35:54;2.92;;;1.55;;
49340;SDS011;35209;51.050;13.678;2022-08-16T12:40:56;2.83;;;1.20;;
49340;SDS011;35209;51.050;13.678;2022-08-16T12:45:58;2.65;;;1.58;;
49340;SDS011;35209;51.050;13.678;2022-08-16T12:51:04;2.75;;;1.40;;
49340;SDS011;35209;51.050;13.678;2022-08-16T12:56:21;2.67;;;1.40;;
49340;SDS011;35209;51.050;13.678;2022-08-16T13:01:27;2.60;;;1.50;;
49340;SDS011;35209;51.050;13.678;2022-08-16T13:06:31;1.60;;;1.50;;
49340;SDS011;35209;51.050;13.678;2022-08-16T13:11:36;6.07;;;1.63;;
49340;SDS011;35209;51.050;13.678;2022-08-16T13:17:01;3.10;;;1.50;;
49340;SDS011;35209;51.050;13.678;2022-08-16T13:22:08;3.35;;;1.40;;
49340;SDS011;35209;51.050;13.678;2022-08-16T13:27:18;1.60;;;1.48;;
49340;SDS011;35209;51.050;13.678;2022-08-16T13:32:40;3.67;;;1.35;;
49340;SDS011;35209;51.050;13.678;2022-08-16T13:37:42;2.70;;;1.20;;
49340;SDS011;35209;51.050;13.678;2022-08-16T13:42:44;2.30;;;1.30;;
49340;SDS011;35209;51.050;13.678;2022-08-16T13:47:47;2.95;;;1.85;;
49340;SDS011;35209;51.050;13.678;2022-08-16T13:52:54;1.55;;;1.27;;
49340;SDS011;35209;51.050;13.678;2022-08-16T13:57:56;3.80;;;1.50;;
49340;SDS011;35209;51.050;13.678;2022-08-16T14:03:18;2.33;;;1.50;;
49340;SDS011;35209;51.050;13.678;2022-08-16T14:08:24;2.60;;;1.50;;
49340;SDS011;35209;51.050;13.678;2022-08-16T14:13:28;1.77;;;1.23;;
49340;SDS011;35209;51.050;13.678;2022-08-16T14:18:29;2.00;;;1.60;;
49340;SDS011;35209;51.050;13.678;2022-08-16T14:23:31;2.22;;;1.30;;
49340;SDS011;35209;51.050;13.678;2022-08-16T14:28:33;1.60;;;1.48;;
49340;SDS011;35209;51.050;13.678;2022-08-16T14:33:35;1.95;;;1.30;;
49340;SDS011;35209;51.050;13.678;2022-08-16T14:38:37;1.92;;;1.42;;
49340;SDS011;35209;51.050;13.678;2022-08-16T14:43:40;2.65;;;1.30;;
49340;SDS011;35209;51.050;13.678;2022-08-16T14:48:42;2.97;;;1.45;;
49340;SDS011;35209;51.050;13.678;2022-08-16T14:53:44;1.58;;;1.30;;
49340;SDS011;35209;51.050;13.678;2022-08-16T14:58:52;1.65;;;1.42;;
49340;SDS011;35209;51.050;13.678;2022-08-16T15:03:54;2.17;;;1.20;;
49340;SDS011;35209;51.050;13.678;2022-08-16T15:08:56;4.10;;;1.40;;
49340;SDS011;35209;51.050;13.678;2022-08-16T15:13:57;1.35;;;1.20;;
49340;SDS011;35209;51.050;13.678;2022-08-16T15:18:59;2.70;;;1.40;;
49340;SDS011;35209;51.050;13.678;2022-08-16T15:24:02;2.70;;;1.60;;
49340;SDS011;35209;51.050;13.678;2022-08-16T15:29:05;2.05;;;1.30;;
49340;SDS011;35209;51.050;13.678;2022-08-16T15:39:22;2.00;;;1.17;;
49340;SDS011;35209;51.050;13.678;2022-08-16T15:44:40;2.40;;;1.17;;
49340;SDS011;35209;51.050;13.678;2022-08-16T15:49:54;3.00;;;1.40;;
49340;SDS011;35209;51.050;13.678;2022-08-16T15:55:00;2.20;;;1.20;;
49340;SDS011;35209;51.050;13.678;2022-08-16T16:00:27;1.85;;;1.40;;
49340;SDS011;35209;51.050;13.678;2022-08-16T16:05:33;5.47;;;1.53;;
49340;SDS011;35209;51.050;13.678;2022-08-16T16:10:35;2.58;;;1.23;;
49340;SDS011;35209;51.050;13.678;2022-08-16T16:15:44;4.50;;;1.40;;
49340;SDS011;35209;51.050;13.678;2022-08-16T16:20:48;3.53;;;1.30;;
49340;SDS011;35209;51.050;13.678;2022-08-16T16:25:52;2.50;;;1.38;;
49340;SDS011;35209;51.050;13.678;2022-08-16T16:30:55;4.75;;;1.55;;
49340;SDS011;35209;51.050;13.678;2022-08-16T16:35:59;2.90;;;1.50;;
49340;SDS011;35209;51.050;13.678;2022-08-16T16:41:06;2.60;;;1.67;;
49340;SDS011;35209;51.050;13.678;2022-08-16T16:46:13;4.25;;;1.50;;
49340;SDS011;35209;51.050;13.678;2022-08-16T16:51:37;1.88;;;1.60;;
49340;SDS011;35209;51.050;13.678;2022-08-16T16:56:47;2.58;;;1.65;;
49340;SDS011;35209;51.050;13.678;2022-08-16T17:01:50;4.25;;;1.80;;
49340;SDS011;35209;51.050;13.678;2022-08-16T17:07:12;3.00;;;1.70;;
49340;SDS011;35209;51.050;13.678;2022-08-16T17:12:13;1.73;;;1.50;;
49340;SDS011;35209;51.050;13.678;2022-08-16T17:17:25;2.92;;;1.75;;
49340;SDS011;35209;51.050;13.678;2022-08-16T17:22:30;2.55;;;2.15;;
49340;SDS011;35209;51.050;13.678;2022-08-16T17:27:33;3.95;;;2.00;;
49340;SDS011;35209;51.050;13.678;2022-08-16T17:32:36;2.30;;;2.15;;
49340;SDS011;35209;51.050;13.678;2022-08-16T17:37:48;1.95;;;1.70;;
49340;SDS011;35209;51.050;13.678;2022-08-16T17:42:52;2.95;;;2.00;;
49340;SDS011;35209;51.050;13.678;2022-08-16T17:47:55;1.90;;;1.50;;
49340;SDS011;35209;51.050;13.678;2022-08-16T17:52:57;2.17;;;1.42;;
49340;SDS011;35209;51.050;13.678;2022-08-16T17:57:59;2.42;;;1.90;;
49340;SDS011;35209;51.050;13.678;2022-08-16T18:03:00;3.67;;;2.05;;
49340;SDS011;35209;51.050;13.678;2022-08-16T18:08:03;2.45;;;2.25;;
49340;SDS011;35209;51.050;13.678;2022-08-16T18:13:10;2.88;;;2.53;;
49340;SDS011;35209;51.050;13.678;2022-08-16T18:18:12;5.13;;;4.82;;
49340;SDS011;35209;51.050;13.678;2022-08-16T18:23:19;6.13;;;5.05;;
49340;SDS011;35209;51.050;13.678;2022-08-16T18:28:24;3.75;;;3.40;;
49340;SDS011;35209;51.050;13.678;2022-08-16T18:33:29;4.07;;;3.25;;
49340;SDS011;35209;51.050;13.678;2022-08-16T18:38:32;3.25;;;2.70;;
49340;SDS011;35209;51.050;13.678;2022-08-16T18:43:38;3.20;;;1.98;;
49340;SDS011;35209;51.050;13.678;2022-08-16T18:48:59;2.78;;;1.90;;
49340;SDS011;35209;51.050;13.678;2022-08-16T18:54:01;2.75;;;1.83;;
49340;SDS011;35209;51.050;13.678;2022-08-16T18:59:04;2.55;;;1.80;;
49340;SDS011;35209;51.050;13.678;2022-08-16T19:04:06;2.50;;;2.15;;
49340;SDS011;35209;51.050;13.678;2022-08-16T19:09:28;2.22;;;1.90;;
49340;SDS011;35209;51.050;13.678;2022-08-16T19:14:29;2.97;;;2.17;;
49340;SDS011;35209;51.050;13.678;2022-08-16T19:19:31;3.35;;;1.90;;
49340;SDS011;35209;51.050;13.678;2022-08-16T19:24:33;2.38;;;2.08;;
49340;SDS011;35209;51.050;13.678;2022-08-16T19:29:37;2.88;;;2.25;;
49340;SDS011;35209;51.050;13.678;2022-08-16T19:34:38;2.08;;;1.95;;
49340;SDS011;35209;51.050;13.678;2022-08-16T19:39:40;2.50;;;2.22;;
49340;SDS011;35209;51.050;13.678;2022-08-16T19:44:43;4.55;;;1.95;;
49340;SDS011;35209;51.050;13.678;2022-08-16T19:49:45;3.50;;;2.10;;
49340;SDS011;35209;51.050;13.678;2022-08-16T19:54:48;2.30;;;2.10;;
49340;SDS011;35209;51.050;13.678;2022-08-16T19:59:52;2.35;;;1.95;;
49340;SDS011;35209;51.050;13.678;2022-08-16T20:05:00;3.20;;;2.10;;
49340;SDS011;35209;51.050;13.678;2022-08-16T20:10:03;1.98;;;1.60;;
49340;SDS011;35209;51.050;13.678;2022-08-16T20:15:09;3.85;;;2.20;;
49340;SDS011;35209;51.050;13.678;2022-08-16T20:20:18;2.63;;;2.42;;
49340;SDS011;35209;51.050;13.678;2022-08-16T20:25:27;3.78;;;3.47;;
49340;SDS011;35209;51.050;13.678;2022-08-16T20:30:38;8.07;;;3.38;;
49340;SDS011;35209;51.050;13.678;2022-08-16T20:35:49;2.47;;;2.28;;
49340;SDS011;35209;51.050;13.678;2022-08-16T20:40:50;3.17;;;2.50;;
49340;SDS011;35209;51.050;13.678;2022-08-16T20:45:52;3.17;;;2.20;;
49340;SDS011;35209;51.050;13.678;2022-08-16T20:50:54;2.55;;;2.35;;
49340;SDS011;35209;51.050;13.678;2022-08-16T20:55:59;3.15;;;2.30;;
49340;SDS011;35209;51.050;13.678;2022-08-16T21:01:01;3.07;;;2.77;;
49340;SDS011;35209;51.050;13.678;2022-08-16T21:06:03;3.22;;;2.08;;
49340;SDS011;35209;51.050;13.678;2022-08-16T21:11:05;2.83;;;2.03;;
49340;SDS011;35209;51.050;13.678;2022-08-16T21:16:07;2.58;;;2.30;;
49340;SDS011;35209;51.050;13.678;2022-08-16T21:21:09;2.60;;;2.20;;
49340;SDS011;35209;51.050;13.678;2022-08-16T21:26:12;2.30;;;2.10;;
49340;SDS011;35209;51.050;13.678;2022-08-16T21:31:14;4.03;;;2.50;;
49340;SDS011;35209;51.050;13.678;2022-08-16T21:36:17;2.78;;;2.10;;
49340;SDS011;35209;51.050;13.678;2022-08-16T21:41:36;3.85;;;1.80;;
49340;SDS011;35209;51.050;13.678;2022-08-16T21:46:38;2.50;;;2.28;;
49340;SDS011;35209;51.050;13.678;2022-08-16T21:51:40;3.97;;;2.00;;
49340;SDS011;35209;51.050;13.678;2022-08-16T21:56:42;2.88;;;2.10;;
49340;SDS011;35209;51.050;13.678;2022-08-16T22:01:43;3.10;;;2.10;;
49340;SDS011;35209;51.050;13.678;2022-08-16T22:06:45;3.90;;;2.35;;
49340;SDS011;35209;51.050;13.678;2022-08-16T22:11:47;2.78;;;2.13;;
49340;SDS011;35209;51.050;13.678;2022-08-16T22:16:49;2.67;;;1.73;;
49340;SDS011;35209;51.050;13.678;2022-08-16T22:21:51;2.30;;;1.70;;
49340;SDS011;35209;51.050;13.678;2022-08-16T22:26:53;2.30;;;2.10;;
49340;SDS011;35209;51.050;13.678;2022-08-16T22:31:54;3.50;;;2.15;;
49340;SDS011;35209;51.050;13.678;2022-08-16T22:36:56;2.00;;;1.50;;
49340;SDS011;35209;51.050;13.678;2022-08-16T22:42:03;2.78;;;1.70;;
49340;SDS011;35209;51.050;13.678;2022-08-16T22:47:07;2.88;;;1.40;;
49340;SDS011;35209;51.050;13.678;2022-08-16T22:52:09;1.70;;;1.40;;
49340;SDS011;35209;51.050;13.678;2022-08-16T22:57:10;1.70;;;1.60;;
49340;SDS011;35209;51.050;13.678;2022-08-16T23:02:12;2.38;;;1.98;;
49340;SDS011;35209;51.050;13.678;2022-08-16T23:07:15;2.00;;;1.80;;
49340;SDS011;35209;51.050;13.678;2022-08-16T23:12:17;2.10;;;1.85;;
49340;SDS011;35209;51.050;13.678;2022-08-16T23:17:29;3.10;;;2.20;;
49340;SDS011;35209;51.050;13.678;2022-08-16T23:22:44;2.38;;;2.00;;
49340;SDS011;35209;51.050;13.678;2022-08-16T23:28:09;2.75;;;1.92;;
49340;SDS011;35209;51.050;13.678;2022-08-16T23:33:11;1.98;;;1.77;;
49340;SDS011;35209;51.050;13.678;2022-08-16T23:38:16;1.92;;;1.80;;
49340;SDS011;35209;51.050;13.678;2022-08-16T23:43:39;2.13;;;1.70;;
49340;SDS011;35209;51.050;13.678;2022-08-16T23:48:44;3.15;;;1.90;;
49340;SDS011;35209;51.050;13.678;2022-08-16T23:54:06;2.65;;;1.90;;
49340;SDS011;35209;51.050;13.678;2022-08-16T23:59:09;2.47;;;1.83;;
